Time;durP1;ratioP1;P1;durP2;ratioP2;P2;SDS_P1;SDS_P2;PMS_P1;PMS_P2;Temp;Humidity;BMP_temperature;BMP_pressure;BME280_temperature;BME280_humidity;BME280_pressure;Samples;Min_cycle;Max_cycle;Signal;HPM_P1;HPM_P2
2023/07/25 00:01:09;;;;;;;9.93;4.70;;;13.20;99.90;;;;;;6093619;23;20014;-83
2023/07/25 00:03:35;;;;;;;8.15;4.43;;;13.10;99.90;;;;;;6070204;23;20466;-83
2023/07/25 00:06:03;;;;;;;8.73;4.68;;;13.10;99.90;;;;;;6069774;23;20086;-83
2023/07/25 00:08:29;;;;;;;9.27;4.95;;;13.10;99.90;;;;;;6069521;23;20030;-84
2023/07/25 00:10:55;;;;;;;7.35;4.57;;;13.00;99.90;;;;;;6067744;23;20046;-83
2023/07/25 00:13:21;;;;;;;9.05;4.63;;;13.00;99.90;;;;;;6066725;23;20021;-83
2023/07/25 00:15:46;;;;;;;8.55;4.68;;;13.00;99.90;;;;;;6068086;23;20488;-84
2023/07/25 00:18:12;;;;;;;10.85;4.68;;;13.00;99.90;;;;;;6045493;23;20356;-83
2023/07/25 00:20:38;;;;;;;8.32;4.75;;;13.00;99.90;;;;;;6092723;23;20037;-83
2023/07/25 00:23:03;;;;;;;10.38;4.88;;;13.00;99.90;;;;;;6068283;23;20007;-84
2023/07/25 00:25:29;;;;;;;8.73;4.75;;;12.90;99.90;;;;;;6068960;23;20010;-84
2023/07/25 00:27:55;;;;;;;7.97;4.38;;;12.90;99.90;;;;;;6069792;23;20006;-83
2023/07/25 00:30:20;;;;;;;6.78;5.10;;;12.90;99.90;;;;;;6069895;23;20011;-83
2023/07/25 00:32:46;;;;;;;7.25;4.60;;;12.90;99.90;;;;;;6070145;23;20065;-84
2023/07/25 00:35:12;;;;;;;11.23;4.75;;;12.90;99.90;;;;;;6071646;23;20014;-83
2023/07/25 00:37:37;;;;;;;14.25;4.82;;;12.80;99.90;;;;;;6095027;23;20090;-83
2023/07/25 00:40:04;;;;;;;8.27;4.50;;;12.90;99.90;;;;;;6095008;23;20042;-83
2023/07/25 00:42:29;;;;;;;7.68;4.55;;;12.90;99.90;;;;;;6070383;23;20018;-82
2023/07/25 00:44:55;;;;;;;10.60;4.88;;;12.90;99.90;;;;;;6095125;23;20019;-82
2023/07/25 00:47:22;;;;;;;7.28;4.15;;;12.90;99.90;;;;;;6070484;23;20018;-82
2023/07/25 00:49:50;;;;;;;9.70;4.90;;;12.90;99.90;;;;;;6094921;23;20069;-82
2023/07/25 00:52:16;;;;;;;10.40;4.57;;;12.80;99.90;;;;;;6094273;23;20014;-82
2023/07/25 00:54:50;;;;;;;7.68;4.40;;;12.80;99.90;;;;;;6094856;23;20049;-82
2023/07/25 00:57:17;;;;;;;11.43;4.88;;;12.80;99.90;;;;;;6095028;23;20345;-82
2023/07/25 00:59:44;;;;;;;8.30;4.68;;;12.80;99.90;;;;;;6095916;23;20025;-82
2023/07/25 01:02:11;;;;;;;10.02;4.88;;;12.80;99.90;;;;;;6094352;23;20022;-82
2023/07/25 01:04:37;;;;;;;10.35;4.85;;;12.80;99.90;;;;;;6095375;23;20022;-82
2023/07/25 01:07:05;;;;;;;9.60;4.93;;;12.80;99.90;;;;;;6094836;23;20046;-81
2023/07/25 01:09:34;;;;;;;8.50;5.22;;;12.70;99.90;;;;;;6095564;23;20022;-82
2023/07/25 01:12:00;;;;;;;11.57;5.22;;;12.70;99.90;;;;;;6094744;23;20015;-82
2023/07/25 01:14:26;;;;;;;8.82;5.20;;;12.70;99.90;;;;;;6095223;23;20021;-82
2023/07/25 01:16:53;;;;;;;6.28;4.30;;;12.70;99.90;;;;;;6047504;23;20014;-82
2023/07/25 01:19:24;;;;;;;10.07;4.40;;;12.70;99.90;;;;;;6070764;23;20015;-82
2023/07/25 01:21:50;;;;;;;10.18;4.80;;;12.70;99.90;;;;;;6094976;23;20018;-82
2023/07/25 01:24:16;;;;;;;9.38;5.03;;;12.60;99.90;;;;;;6070930;23;20046;-82
2023/07/25 01:26:42;;;;;;;10.15;4.28;;;12.60;99.90;;;;;;6070838;23;20656;-82
2023/07/25 01:29:07;;;;;;;8.82;4.82;;;12.60;99.90;;;;;;6071036;23;20022;-82
2023/07/25 01:31:33;;;;;;;10.80;5.32;;;12.70;99.90;;;;;;6094979;23;20441;-82
2023/07/25 01:33:59;;;;;;;10.02;4.65;;;12.60;99.90;;;;;;6094969;23;20053;-82
2023/07/25 01:36:24;;;;;;;8.50;4.97;;;12.60;99.90;;;;;;6047716;23;20452;-83
2023/07/25 01:38:50;;;;;;;11.88;4.97;;;12.60;99.90;;;;;;6094336;23;20093;-82
2023/07/25 01:41:16;;;;;;;11.95;4.88;;;12.60;99.90;;;;;;6071760;23;20021;-82
2023/07/25 01:43:41;;;;;;;11.15;4.90;;;12.60;99.90;;;;;;6094713;23;20018;-82
2023/07/25 01:46:07;;;;;;;8.20;4.72;;;12.60;99.90;;;;;;6095051;23;20019;-82
2023/07/25 01:48:33;;;;;;;8.93;4.25;;;12.60;99.90;;;;;;6045737;23;20452;-81
2023/07/25 01:50:58;;;;;;;8.30;4.57;;;12.60;99.90;;;;;;6092745;23;20030;-82
2023/07/25 01:53:24;;;;;;;10.00;4.78;;;12.60;99.90;;;;;;6069955;23;20014;-81
2023/07/25 01:55:50;;;;;;;5.82;4.28;;;12.60;99.90;;;;;;6070379;23;20025;-81
2023/07/25 01:58:15;;;;;;;7.15;4.20;;;12.60;99.90;;;;;;6094565;23;20017;-82
2023/07/25 02:00:41;;;;;;;10.00;4.70;;;12.60;99.90;;;;;;6070715;23;20314;-82
2023/07/25 02:03:09;;;;;;;10.15;4.97;;;12.60;99.90;;;;;;6094795;23;20074;-82
2023/07/25 02:05:35;;;;;;;8.68;4.50;;;12.50;99.90;;;;;;6047847;23;20081;-81
2023/07/25 02:08:01;;;;;;;9.50;4.60;;;12.50;99.90;;;;;;6070008;23;20011;-82
2023/07/25 02:10:27;;;;;;;7.53;4.05;;;12.50;99.90;;;;;;6094707;23;20471;-82
2023/07/25 02:12:55;;;;;;;10.38;4.50;;;12.50;99.90;;;;;;6070737;23;20445;-82
2023/07/25 02:15:21;;;;;;;8.80;4.60;;;12.50;99.90;;;;;;6094612;23;20152;-82
2023/07/25 02:17:47;;;;;;;8.50;3.92;;;12.50;99.90;;;;;;6046617;23;20468;-82
2023/07/25 02:20:13;;;;;;;7.63;4.70;;;12.40;99.90;;;;;;6070604;23;20018;-82
2023/07/25 02:22:38;;;;;;;8.30;4.80;;;12.40;99.90;;;;;;6094168;23;20030;-82
2023/07/25 02:25:04;;;;;;;10.38;4.88;;;12.40;99.90;;;;;;6070314;23;20022;-81
2023/07/25 02:27:30;;;;;;;7.97;4.55;;;12.50;99.90;;;;;;6094782;23;20014;-82
2023/07/25 02:29:55;;;;;;;11.18;4.68;;;12.50;99.90;;;;;;6070383;23;20318;-82
2023/07/25 02:32:21;;;;;;;8.40;4.20;;;12.50;99.90;;;;;;6094202;23;20089;-82
2023/07/25 02:34:47;;;;;;;10.70;4.70;;;12.60;99.90;;;;;;6046490;23;20345;-82
2023/07/25 02:37:12;;;;;;;13.30;4.95;;;12.60;99.90;;;;;;6070695;23;20041;-82
2023/07/25 02:39:38;;;;;;;13.07;4.72;;;12.60;99.90;;;;;;6046369;23;20025;-83
2023/07/25 02:42:04;;;;;;;10.02;4.65;;;12.60;99.90;;;;;;6070556;23;20053;-84
2023/07/25 02:44:30;;;;;;;10.68;4.35;;;12.60;99.90;;;;;;6070270;23;20018;-84
2023/07/25 02:46:55;;;;;;;10.00;4.85;;;12.70;99.90;;;;;;6046737;23;20499;-83
2023/07/25 02:49:21;;;;;;;10.10;4.82;;;12.70;99.90;;;;;;6069916;23;20352;-84
2023/07/25 02:51:46;;;;;;;8.32;4.32;;;12.70;99.90;;;;;;6093754;23;20022;-83
2023/07/25 02:54:12;;;;;;;10.52;4.55;;;12.70;99.90;;;;;;6093315;23;20022;-84
2023/07/25 02:56:38;;;;;;;8.18;4.55;;;12.80;99.90;;;;;;6045850;23;20028;-84
2023/07/25 02:59:03;;;;;;;12.15;4.45;;;12.70;99.90;;;;;;6093262;23;20440;-84
2023/07/25 03:01:29;;;;;;;10.88;4.53;;;12.80;99.90;;;;;;6093331;23;20025;-84
2023/07/25 03:03:55;;;;;;;12.43;4.97;;;12.70;99.90;;;;;;6070437;23;20015;-84
2023/07/25 03:06:21;;;;;;;8.13;4.18;;;12.80;99.90;;;;;;6046404;23;20348;-84
2023/07/25 03:08:46;;;;;;;6.88;4.10;;;12.80;99.90;;;;;;6069664;23;20059;-84
2023/07/25 03:11:12;;;;;;;8.65;4.53;;;12.70;99.90;;;;;;6046647;23;20014;-84
2023/07/25 03:13:37;;;;;;;12.50;4.45;;;12.70;99.90;;;;;;6070032;23;20560;-83
2023/07/25 03:16:03;;;;;;;6.10;4.38;;;12.70;99.90;;;;;;6070304;23;20345;-84
2023/07/25 03:18:29;;;;;;;8.25;4.43;;;12.70;99.90;;;;;;6070046;23;20014;-84
2023/07/25 03:20:55;;;;;;;8.85;5.20;;;12.70;99.90;;;;;;6046437;23;20014;-84
2023/07/25 03:23:20;;;;;;;11.38;4.45;;;12.70;99.90;;;;;;6069734;23;20115;-83
2023/07/25 03:25:46;;;;;;;10.00;4.95;;;12.70;99.90;;;;;;6070110;23;20073;-84
2023/07/25 03:28:12;;;;;;;9.98;4.15;;;12.70;99.90;;;;;;6070233;23;20019;-84
2023/07/25 03:30:37;;;;;;;11.30;5.10;;;12.60;99.90;;;;;;6093237;23;20018;-84
2023/07/25 03:33:03;;;;;;;10.20;4.50;;;12.60;99.90;;;;;;6070090;23;20014;-84
2023/07/25 03:35:29;;;;;;;9.23;4.55;;;12.60;99.90;;;;;;6045961;23;20452;-84
2023/07/25 03:37:54;;;;;;;11.77;5.07;;;12.60;99.90;;;;;;6069932;23;20011;-84
2023/07/25 03:40:20;;;;;;;10.27;4.70;;;12.60;99.90;;;;;;6045729;23;20014;-84
2023/07/25 03:42:46;;;;;;;9.20;4.65;;;12.70;99.90;;;;;;6069897;23;20018;-84
2023/07/25 03:45:11;;;;;;;10.40;4.57;;;12.70;99.90;;;;;;6046037;23;20022;-84
2023/07/25 03:47:37;;;;;;;8.90;5.40;;;12.60;99.90;;;;;;6070034;23;20018;-84
2023/07/25 03:50:03;;;;;;;12.38;5.53;;;12.60;99.90;;;;;;6093386;23;20018;-84
2023/07/25 03:52:29;;;;;;;11.18;4.93;;;12.60;99.90;;;;;;6068578;23;20029;-84
2023/07/25 03:54:54;;;;;;;8.68;4.97;;;12.60;99.90;;;;;;6069144;23;20057;-84
2023/07/25 03:57:20;;;;;;;6.78;4.60;;;12.60;99.90;;;;;;6069479;23;20018;-83
2023/07/25 03:59:46;;;;;;;9.13;5.05;;;12.60;99.90;;;;;;6069249;23;20093;-84
2023/07/25 04:02:11;;;;;;;8.25;4.32;;;12.60;99.90;;;;;;6045918;23;20018;-84
2023/07/25 04:04:37;;;;;;;9.25;4.80;;;12.70;99.90;;;;;;6068834;23;20512;-84
2023/07/25 04:07:03;;;;;;;9.90;5.05;;;12.70;99.90;;;;;;6046511;23;20021;-84
2023/07/25 04:09:28;;;;;;;7.85;4.70;;;12.70;99.90;;;;;;6071153;23;20077;-84
2023/07/25 04:11:54;;;;;;;10.20;4.75;;;12.70;99.90;;;;;;6071311;23;20022;-84
2023/07/25 04:14:20;;;;;;;10.85;4.82;;;12.80;99.90;;;;;;6095356;23;20010;-84
2023/07/25 04:16:45;;;;;;;9.13;4.70;;;12.80;99.90;;;;;;6071533;23;20056;-84
2023/07/25 04:19:11;;;;;;;10.57;4.85;;;12.90;99.90;;;;;;6071724;23;20011;-84
2023/07/25 04:21:37;;;;;;;7.88;4.65;;;12.90;99.90;;;;;;6095097;23;20019;-84
2023/07/25 04:24:05;;;;;;;11.70;4.70;;;12.90;99.90;;;;;;6047647;23;20018;-83
2023/07/25 04:26:31;;;;;;;12.73;5.10;;;13.00;99.90;;;;;;6071783;23;20014;-82
2023/07/25 04:28:56;;;;;;;9.63;4.85;;;13.00;99.90;;;;;;6072451;23;20102;-83
2023/07/25 04:31:22;;;;;;;11.45;4.95;;;13.00;99.90;;;;;;6095398;23;20025;-82
2023/07/25 04:33:47;;;;;;;9.85;4.80;;;13.00;99.90;;;;;;6095832;23;20064;-82
2023/07/25 04:36:13;;;;;;;10.30;4.93;;;13.00;99.90;;;;;;6047035;23;20512;-83
2023/07/25 04:38:40;;;;;;;11.90;4.93;;;13.10;99.90;;;;;;6095783;23;20093;-83
2023/07/25 04:41:05;;;;;;;9.75;4.82;;;13.00;99.90;;;;;;6095629;23;20014;-83
2023/07/25 04:43:31;;;;;;;11.20;4.97;;;13.00;99.90;;;;;;6071168;23;20019;-82
2023/07/25 04:45:57;;;;;;;10.90;4.82;;;13.00;99.90;;;;;;6070843;23;20049;-83
2023/07/25 04:48:22;;;;;;;11.20;4.85;;;13.00;99.90;;;;;;6095047;23;20014;-83
2023/07/25 04:50:48;;;;;;;8.60;4.93;;;13.00;99.90;;;;;;6070947;23;20024;-84
2023/07/25 04:53:14;;;;;;;8.85;4.80;;;13.00;99.90;;;;;;6071605;23;20050;-84
2023/07/25 04:55:40;;;;;;;8.00;4.25;;;13.00;99.90;;;;;;6070727;23;20094;-84
2023/07/25 04:58:05;;;;;;;9.50;4.95;;;13.00;99.90;;;;;;6071486;23;20073;-83
2023/07/25 05:00:31;;;;;;;10.32;4.50;;;13.10;99.90;;;;;;6095067;23;20045;-84
2023/07/25 05:02:57;;;;;;;10.63;4.53;;;13.10;99.90;;;;;;6094824;23;20070;-83
2023/07/25 05:05:22;;;;;;;10.15;4.35;;;13.10;99.90;;;;;;6094715;23;20018;-84
2023/07/25 05:07:48;;;;;;;7.07;4.15;;;13.10;99.90;;;;;;6047011;23;20014;-84
2023/07/25 05:10:14;;;;;;;10.35;4.22;;;13.10;99.90;;;;;;6095306;23;20022;-84
2023/07/25 05:12:40;;;;;;;12.20;4.65;;;13.20;99.90;;;;;;6071412;23;20018;-84
2023/07/25 05:15:06;;;;;;;9.70;4.95;;;13.20;99.90;;;;;;6094538;23;20010;-84
2023/07/25 05:17:31;;;;;;;9.27;4.28;;;13.20;99.90;;;;;;6046922;23;20021;-84
2023/07/25 05:19:57;;;;;;;9.82;4.63;;;13.30;99.90;;;;;;6094626;23;20341;-84
2023/07/25 05:22:23;;;;;;;11.77;4.60;;;13.30;99.90;;;;;;6070786;23;20025;-84
2023/07/25 05:24:48;;;;;;;10.75;4.15;;;13.40;99.90;;;;;;6071841;23;20025;-84
2023/07/25 05:27:15;;;;;;;9.15;4.28;;;13.40;99.90;;;;;;6071729;23;20014;-84
2023/07/25 05:29:40;;;;;;;8.68;4.07;;;13.40;99.90;;;;;;6072047;23;20500;-84
2023/07/25 05:32:07;;;;;;;10.00;3.67;;;13.50;99.90;;;;;;6095241;23;20014;-84
2023/07/25 05:34:32;;;;;;;7.90;3.85;;;13.50;99.90;;;;;;6095844;23;20053;-84
2023/07/25 05:36:58;;;;;;;11.45;4.05;;;13.60;99.90;;;;;;6095259;23;20018;-84
2023/07/25 05:39:24;;;;;;;7.03;3.70;;;13.60;99.90;;;;;;6096026;23;20011;-84
2023/07/25 05:41:49;;;;;;;10.60;4.85;;;13.60;99.90;;;;;;6071471;23;20471;-84
2023/07/25 05:44:15;;;;;;;6.95;3.70;;;13.60;99.90;;;;;;6119005;23;20018;-84
2023/07/25 05:46:40;;;;;;;8.98;3.97;;;13.70;99.90;;;;;;6070932;23;20021;-84
2023/07/25 05:49:06;;;;;;;7.97;3.85;;;13.80;99.90;;;;;;6071419;23;20019;-84
2023/07/25 05:51:32;;;;;;;10.85;4.47;;;13.80;99.90;;;;;;6070826;23;20117;-84
2023/07/25 05:53:57;;;;;;;9.10;3.88;;;13.90;99.90;;;;;;6070628;23;20011;-84
2023/07/25 05:56:23;;;;;;;7.88;3.40;;;14.00;99.90;;;;;;6069695;23;20019;-86
2023/07/25 05:58:49;;;;;;;6.40;3.58;;;14.10;99.90;;;;;;6093119;23;20105;-84
2023/07/25 06:01:14;;;;;;;9.73;3.40;;;14.20;99.90;;;;;;6068390;23;20509;-84
2023/07/25 06:03:40;;;;;;;11.13;3.85;;;14.30;99.90;;;;;;6068323;23;20044;-84
2023/07/25 06:06:06;;;;;;;8.90;3.70;;;14.40;99.90;;;;;;6067911;23;20019;-84
2023/07/25 06:08:31;;;;;;;5.93;3.45;;;14.50;99.90;;;;;;6067659;23;20413;-84
2023/07/25 06:10:57;;;;;;;9.07;3.80;;;14.60;99.90;;;;;;6043163;23;20054;-84
2023/07/25 06:13:24;;;;;;;9.35;3.17;;;14.70;99.90;;;;;;6067435;23;20069;-84
2023/07/25 06:15:50;;;;;;;6.55;3.10;;;14.80;99.90;;;;;;6068962;23;20455;-85
2023/07/25 06:18:15;;;;;;;7.90;3.25;;;14.80;99.90;;;;;;6069717;23;20067;-85
2023/07/25 06:20:41;;;;;;;6.63;2.78;;;14.90;99.90;;;;;;6044550;23;20062;-84
2023/07/25 06:23:07;;;;;;;7.45;2.72;;;14.90;99.90;;;;;;6045232;23;20014;-86
2023/07/25 06:25:33;;;;;;;6.78;2.85;;;15.00;99.90;;;;;;6068919;23;20021;-84
2023/07/25 06:27:58;;;;;;;9.55;2.97;;;15.00;99.90;;;;;;6068565;23;20459;-84
2023/07/25 06:30:24;;;;;;;5.65;2.45;;;15.10;99.90;;;;;;6092057;23;20050;-85
2023/07/25 06:32:50;;;;;;;5.82;2.63;;;15.20;99.90;;;;;;6092018;23;20069;-85
2023/07/25 06:35:16;;;;;;;8.48;2.70;;;15.30;99.90;;;;;;6091961;23;20078;-86
2023/07/25 06:37:41;;;;;;;7.03;2.38;;;15.20;99.90;;;;;;6068215;23;20021;-86
2023/07/25 06:40:07;;;;;;;7.40;3.03;;;15.20;99.90;;;;;;6070196;23;20022;-85
2023/07/25 06:42:33;;;;;;;4.53;2.50;;;15.30;99.90;;;;;;6094437;23;20047;-85
2023/07/25 06:44:59;;;;;;;7.38;2.58;;;15.30;99.90;;;;;;6045915;23;20022;-85
2023/07/25 06:47:25;;;;;;;8.10;2.78;;;15.40;99.90;;;;;;6069797;23;20125;-86
2023/07/25 06:49:50;;;;;;;7.78;2.90;;;15.50;99.90;;;;;;6070580;23;20056;-84
2023/07/25 06:52:16;;;;;;;7.72;2.60;;;15.60;99.90;;;;;;6094338;23;20014;-86
2023/07/25 06:54:43;;;;;;;7.28;2.72;;;15.70;99.90;;;;;;6023207;23;20239;-86
2023/07/25 06:57:10;;;;;;;9.02;2.60;;;15.80;99.90;;;;;;6093846;23;20093;-84
2023/07/25 06:59:36;;;;;;;6.05;2.15;;;15.90;99.90;;;;;;6094133;23;20057;-84
2023/07/25 07:02:01;;;;;;;5.20;2.00;;;16.00;99.90;;;;;;6093663;23;20465;-84
2023/07/25 07:04:27;;;;;;;4.45;2.20;;;16.00;99.90;;;;;;6093644;23;20018;-85
2023/07/25 07:06:53;;;;;;;5.03;2.15;;;16.10;99.90;;;;;;6093090;23;20018;-86
2023/07/25 07:09:18;;;;;;;6.35;1.90;;;16.20;99.90;;;;;;6069563;23;20436;-86
2023/07/25 07:11:44;;;;;;;7.63;1.80;;;16.20;99.90;;;;;;6044979;23;20049;-84
2023/07/25 07:14:10;;;;;;;3.35;1.45;;;16.10;99.90;;;;;;6070460;23;20093;-84
2023/07/25 07:16:36;;;;;;;6.97;1.95;;;16.10;99.90;;;;;;6069409;23;20409;-86
2023/07/25 07:19:01;;;;;;;5.05;1.52;;;15.90;99.90;;;;;;6021995;23;20010;-83
2023/07/25 07:21:27;;;;;;;6.35;1.73;;;16.00;99.90;;;;;;6069222;23;20053;-84
2023/07/25 07:23:53;;;;;;;4.75;1.95;;;16.10;99.90;;;;;;6068796;23;20097;-85
2023/07/25 07:26:19;;;;;;;4.90;1.70;;;16.10;99.90;;;;;;6092499;23;20356;-83
2023/07/25 07:28:45;;;;;;;4.80;1.55;;;16.10;99.90;;;;;;6092997;23;20029;-84
2023/07/25 07:31:12;;;;;;;4.13;1.33;;;16.00;99.90;;;;;;6045160;23;20014;-84
2023/07/25 07:33:38;;;;;;;5.13;1.38;;;16.10;99.90;;;;;;6045822;23;20759;-83
2023/07/25 07:36:04;;;;;;;8.02;1.70;;;16.20;99.90;;;;;;6069699;23;20017;-83
2023/07/25 07:38:30;;;;;;;4.80;1.52;;;16.20;99.90;;;;;;6093261;23;20022;-83
2023/07/25 07:40:56;;;;;;;7.95;1.70;;;16.20;99.90;;;;;;6068902;23;20010;-82
2023/07/25 07:43:21;;;;;;;5.90;1.65;;;16.40;99.90;;;;;;6092766;23;20014;-83
2023/07/25 07:45:48;;;;;;;4.47;1.20;;;16.50;99.90;;;;;;6069132;23;20345;-84
2023/07/25 07:48:14;;;;;;;2.92;1.67;;;16.60;99.90;;;;;;6069792;23;20014;-83
2023/07/25 07:50:40;;;;;;;4.50;1.35;;;16.80;99.90;;;;;;6069918;23;20011;-84
2023/07/25 07:53:05;;;;;;;4.80;1.20;;;16.80;99.90;;;;;;6093363;23;20042;-84
2023/07/25 07:55:31;;;;;;;4.30;1.20;;;16.90;99.90;;;;;;6093460;23;20026;-84
2023/07/25 07:57:57;;;;;;;3.33;1.05;;;17.00;99.90;;;;;;6092972;23;20021;-85
2023/07/25 08:00:25;;;;;;;2.47;1.10;;;16.90;99.90;;;;;;6070244;23;20014;-84
2023/07/25 08:02:51;;;;;;;3.63;1.00;;;17.00;99.90;;;;;;6093213;23;20014;-83
2023/07/25 08:05:18;;;;;;;4.60;1.30;;;17.00;99.90;;;;;;6094746;23;20743;-85
2023/07/25 08:07:43;;;;;;;3.83;1.08;;;17.00;99.90;;;;;;6093139;23;20029;-86
2023/07/25 08:10:10;;;;;;;3.20;1.17;;;17.00;99.90;;;;;;6093500;23;20453;-85
2023/07/25 08:12:36;;;;;;;3.17;1.10;;;17.10;99.90;;;;;;6068707;23;20021;-84
2023/07/25 08:15:02;;;;;;;3.53;1.10;;;17.10;99.90;;;;;;6093057;23;20037;-84
2023/07/25 08:17:28;;;;;;;3.38;0.93;;;17.20;99.90;;;;;;6044726;23;20070;-85
2023/07/25 08:19:54;;;;;;;3.70;1.08;;;17.20;99.90;;;;;;6045978;23;20010;-86
2023/07/25 08:22:20;;;;;;;5.40;1.00;;;17.10;99.90;;;;;;6095132;23;20019;-85
2023/07/25 08:24:46;;;;;;;2.55;1.13;;;17.10;99.90;;;;;;6069454;23;20018;-87
2023/07/25 08:27:12;;;;;;;3.72;1.10;;;17.20;99.90;;;;;;6069842;23;20089;-83
2023/07/25 08:29:41;;;;;;;2.33;1.05;;;17.30;99.90;;;;;;6095587;23;20046;-85
2023/07/25 08:32:09;;;;;;;2.65;1.00;;;17.40;99.90;;;;;;6093869;23;20018;-83
2023/07/25 08:34:36;;;;;;;2.67;1.05;;;17.40;99.90;;;;;;6093799;23;20018;-82
2023/07/25 08:37:02;;;;;;;3.55;1.30;;;17.50;99.90;;;;;;6093391;23;20086;-83
2023/07/25 08:39:28;;;;;;;2.88;0.88;;;17.60;99.90;;;;;;6093653;23;20156;-84
2023/07/25 08:41:54;;;;;;;2.38;1.30;;;17.60;99.90;;;;;;6069216;23;20099;-84
2023/07/25 08:44:20;;;;;;;1.75;0.90;;;17.50;99.90;;;;;;6069796;23;20025;-84
2023/07/25 08:46:50;;;;;;;2.70;0.90;;;17.60;99.90;;;;;;6093669;23;20018;-83
2023/07/25 08:49:20;;;;;;;1.95;0.82;;;17.70;99.90;;;;;;6093578;23;20081;-86
2023/07/25 08:51:48;;;;;;;1.60;1.00;;;17.80;99.90;;;;;;6094126;23;20018;-84
2023/07/25 08:54:35;;;;;;;1.95;0.80;;;17.90;99.90;;;;;;6070676;23;20017;-83
2023/07/25 08:57:02;;;;;;;1.88;1.00;;;17.80;99.90;;;;;;6097077;23;20487;-84
2023/07/25 08:59:28;;;;;;;2.40;0.95;;;17.90;99.90;;;;;;6095348;23;20025;-83
2023/07/25 09:01:54;;;;;;;3.92;1.23;;;17.80;99.90;;;;;;6094838;23;20026;-83
2023/07/25 09:04:22;;;;;;;2.70;0.90;;;17.80;99.90;;;;;;6047318;23;20019;-85
2023/07/25 09:06:47;;;;;;;2.80;1.00;;;17.90;99.90;;;;;;6093656;23;20018;-81
2023/07/25 09:09:13;;;;;;;4.47;0.93;;;17.70;99.90;;;;;;6094438;23;20097;-83
2023/07/25 09:11:39;;;;;;;2.47;0.80;;;17.60;99.90;;;;;;6070792;23;20015;-83
2023/07/25 09:14:05;;;;;;;3.47;1.08;;;17.50;99.90;;;;;;6070352;23;20022;-84
2023/07/25 09:16:31;;;;;;;2.22;1.08;;;17.30;99.90;;;;;;6071295;23;20014;-83
2023/07/25 09:18:57;;;;;;;2.70;0.90;;;17.40;99.90;;;;;;6047668;23;20420;-84
2023/07/25 09:21:23;;;;;;;2.15;0.82;;;17.60;99.90;;;;;;6023705;23;20022;-82
2023/07/25 09:23:52;;;;;;;2.45;0.90;;;17.80;99.90;;;;;;6095048;23;20396;-82
2023/07/25 09:26:24;;;;;;;2.42;1.10;;;18.00;99.90;;;;;;6094529;23;20089;-84
2023/07/25 09:28:56;;;;;;;3.25;1.15;;;18.00;99.90;;;;;;6094450;23;20073;-83
2023/07/25 09:31:23;;;;;;;1.50;1.10;;;18.20;99.90;;;;;;6094410;23;20464;-82
2023/07/25 09:33:53;;;;;;;1.90;0.95;;;18.40;99.90;;;;;;6094305;23;20025;-82
2023/07/25 09:36:19;;;;;;;2.85;0.80;;;18.50;99.90;;;;;;6094779;23;20098;-81
2023/07/25 09:38:54;;;;;;;2.72;1.15;;;18.60;99.90;;;;;;6118749;23;20324;-82
2023/07/25 09:41:24;;;;;;;2.63;0.95;;;18.50;99.90;;;;;;6094020;23;20015;-82
2023/07/25 09:43:51;;;;;;;3.95;0.98;;;18.40;99.90;;;;;;6070167;23;20145;-82
2023/07/25 09:46:17;;;;;;;2.92;1.20;;;18.30;99.90;;;;;;6070656;23;20018;-82
2023/07/25 09:48:50;;;;;;;2.25;1.10;;;18.00;99.90;;;;;;6071018;23;20028;-82
2023/07/25 09:51:16;;;;;;;3.28;1.10;;;17.90;99.90;;;;;;6094555;23;20310;-83
2023/07/25 09:53:50;;;;;;;2.05;0.93;;;18.00;99.90;;;;;;6094688;23;20070;-82
2023/07/25 09:56:16;;;;;;;1.38;0.90;;;18.30;99.90;;;;;;6094446;23;20452;-80
2023/07/25 09:58:41;;;;;;;4.35;1.20;;;18.50;99.90;;;;;;6069887;23;20045;-83
2023/07/25 10:01:09;;;;;;;3.35;1.20;;;18.70;99.90;;;;;;6094443;23;20060;-82
2023/07/25 10:03:36;;;;;;;3.03;1.05;;;18.60;99.90;;;;;;6070444;23;20026;-82
2023/07/25 10:06:04;;;;;;;3.55;0.93;;;18.40;99.90;;;;;;6094075;23;20018;-82
2023/07/25 10:08:30;;;;;;;1.65;1.00;;;18.20;99.90;;;;;;6094642;23;20058;-82
2023/07/25 10:10:56;;;;;;;4.07;1.10;;;17.90;99.90;;;;;;6070363;23;20014;-82
2023/07/25 10:13:23;;;;;;;0.80;0.80;;;17.70;99.90;;;;;;6070492;23;20627;-81
2023/07/25 10:15:50;;;;;;;4.25;1.42;;;17.90;99.90;;;;;;6094114;23;20337;-80
2023/07/25 10:18:24;;;;;;;3.10;0.85;;;18.20;99.90;;;;;;6093331;23;20057;-80
2023/07/25 10:20:52;;;;;;;4.32;1.05;;;18.50;99.90;;;;;;6093476;23;20243;-80
2023/07/25 10:23:18;;;;;;;1.95;1.00;;;18.70;99.90;;;;;;6069968;23;20018;-80
2023/07/25 10:25:44;;;;;;;2.22;1.00;;;18.70;99.90;;;;;;6070310;23;20021;-82
2023/07/25 10:28:11;;;;;;;2.80;1.10;;;18.60;99.90;;;;;;6094132;23;20089;-81
2023/07/25 10:30:44;;;;;;;2.03;0.88;;;18.30;99.90;;;;;;6070300;23;20370;-82
2023/07/25 10:33:13;;;;;;;3.88;1.27;;;18.40;99.90;;;;;;6093699;23;20018;-82
2023/07/25 10:35:49;;;;;;;2.38;1.13;;;18.40;99.90;;;;;;6094454;23;20102;-81
2023/07/25 10:38:40;;;;;;;3.58;1.10;;;18.40;99.90;;;;;;6094037;23;20010;-82
2023/07/25 10:41:13;;;;;;;3.58;1.30;;;18.40;99.90;;;;;;6094010;23;20013;-81
2023/07/25 10:43:46;;;;;;;3.20;1.13;;;18.30;99.90;;;;;;6093988;23;20073;-82
2023/07/25 10:46:14;;;;;;;1.98;1.17;;;18.00;99.90;;;;;;6093696;23;20018;-81
2023/07/25 10:48:48;;;;;;;2.83;1.27;;;17.80;99.90;;;;;;6069496;23;20105;-83
2023/07/25 10:51:16;;;;;;;3.75;1.15;;;17.70;99.90;;;;;;6093070;23;20021;-81
2023/07/25 10:54:02;;;;;;;5.13;1.35;;;17.60;99.90;;;;;;6069728;23;20332;-82
2023/07/25 10:56:28;;;;;;;3.28;1.42;;;17.60;99.90;;;;;;6054497;23;20026;-82
2023/07/25 10:59:05;;;;;;;3.80;1.20;;;17.70;99.90;;;;;;6046260;23;20014;-82
2023/07/25 11:01:38;;;;;;;3.08;1.17;;;17.80;99.90;;;;;;6093686;23;20014;-80
2023/07/25 11:04:37;;;;;;;3.25;1.10;;;17.80;99.90;;;;;;6093487;23;20448;-80
2023/07/25 11:07:10;;;;;;;3.72;1.35;;;17.70;99.90;;;;;;6093860;23;20028;-81
2023/07/25 11:09:42;;;;;;;3.10;1.02;;;17.80;99.90;;;;;;6093644;23;20025;-81
2023/07/25 11:12:09;;;;;;;3.08;1.17;;;18.00;99.90;;;;;;6093292;23;20022;-80
2023/07/25 11:14:43;;;;;;;3.17;1.13;;;18.20;99.90;;;;;;6093112;23;20321;-81
2023/07/25 11:17:10;;;;;;;3.50;1.08;;;18.40;99.90;;;;;;6092885;23;20056;-80
2023/07/25 11:19:36;;;;;;;3.50;1.30;;;18.30;99.90;;;;;;6069105;23;20089;-81
2023/07/25 11:22:09;;;;;;;3.55;1.50;;;18.20;99.90;;;;;;6069543;23;20049;-84
2023/07/25 11:24:46;;;;;;;3.50;1.40;;;18.00;99.90;;;;;;6093346;23;20037;-82
2023/07/25 11:27:13;;;;;;;4.28;1.50;;;17.90;99.90;;;;;;6093257;23;20348;-81
2023/07/25 11:29:39;;;;;;;4.28;1.35;;;18.00;99.90;;;;;;6092932;23;20018;-82
2023/07/25 11:32:06;;;;;;;3.25;1.42;;;18.00;99.90;;;;;;6092866;23;20019;-82
2023/07/25 11:34:31;;;;;;;2.38;1.48;;;17.80;99.90;;;;;;6092751;23;20014;-82
2023/07/25 11:36:57;;;;;;;4.57;1.38;;;18.00;99.90;;;;;;6070178;23;20029;-82
2023/07/25 11:39:23;;;;;;;4.18;1.27;;;18.10;99.90;;;;;;6069602;23;20441;-83
2023/07/25 11:41:49;;;;;;;6.25;1.60;;;18.40;99.90;;;;;;6069828;23;20022;-82
2023/07/25 11:44:18;;;;;;;2.28;1.20;;;18.60;99.90;;;;;;6093520;23;20014;-82
2023/07/25 11:46:51;;;;;;;4.22;1.15;;;18.50;99.90;;;;;;6093724;23;20097;-82
2023/07/25 11:49:17;;;;;;;2.40;1.20;;;18.40;99.90;;;;;;6094069;23;20077;-82
2023/07/25 11:51:44;;;;;;;3.00;1.40;;;18.40;99.90;;;;;;6069724;23;20348;-80
2023/07/25 11:54:10;;;;;;;4.10;1.30;;;18.60;99.90;;;;;;6093476;23;20085;-81
2023/07/25 11:56:36;;;;;;;5.47;1.20;;;18.90;99.90;;;;;;6069467;23;20021;-80
2023/07/25 11:59:03;;;;;;;3.33;1.10;;;19.00;99.90;;;;;;6093775;23;20483;-81
2023/07/25 12:01:33;;;;;;;3.13;1.15;;;18.80;99.90;;;;;;6093629;23;20025;-81
2023/07/25 12:04:02;;;;;;;4.07;1.35;;;18.60;99.90;;;;;;6092540;23;20049;-80
2023/07/25 12:06:32;;;;;;;5.40;1.65;;;18.70;99.90;;;;;;6093232;23;20089;-80
2023/07/25 12:09:00;;;;;;;4.57;1.10;;;18.80;99.90;;;;;;6093206;23;20038;-81
2023/07/25 12:11:27;;;;;;;3.40;1.27;;;18.80;99.90;;;;;;6093039;23;20053;-80
2023/07/25 12:13:55;;;;;;;4.32;1.83;;;18.80;99.90;;;;;;6093010;23;20069;-80
2023/07/25 12:16:31;;;;;;;3.17;1.00;;;18.70;99.90;;;;;;6093297;23;20045;-81
2023/07/25 12:19:00;;;;;;;4.68;1.80;;;18.70;99.90;;;;;;6093633;23;20448;-80
2023/07/25 12:21:28;;;;;;;3.30;1.10;;;18.50;99.90;;;;;;6092695;23;20023;-80
2023/07/25 12:23:57;;;;;;;1.63;1.00;;;18.30;99.90;;;;;;6092971;23;20019;-80
2023/07/25 12:26:23;;;;;;;2.55;1.20;;;18.30;99.90;;;;;;6093055;23;20030;-80
2023/07/25 12:28:50;;;;;;;5.28;1.30;;;18.20;99.90;;;;;;6046339;23;20014;-81
2023/07/25 12:31:16;;;;;;;4.47;1.23;;;18.20;99.90;;;;;;6071302;23;20010;-81
2023/07/25 12:33:47;;;;;;;1.88;1.13;;;18.20;99.90;;;;;;6094683;23;20026;-80
2023/07/25 12:36:14;;;;;;;4.20;1.20;;;18.30;99.90;;;;;;6094692;23;20448;-80
2023/07/25 12:38:40;;;;;;;3.63;1.17;;;18.50;99.90;;;;;;6094865;23;20025;-81
2023/07/25 12:41:06;;;;;;;2.78;1.02;;;18.70;99.90;;;;;;6071562;23;20014;-80
2023/07/25 12:43:32;;;;;;;3.63;1.10;;;18.90;99.90;;;;;;6095007;23;20010;-80